Time;durP1;ratioP1;P1;durP2;ratioP2;P2;SDS_P1;SDS_P2;PMS_P1;PMS_P2;Temp;Humidity;BMP_temperature;BMP_pressure;BME280_temperature;BME280_humidity;BME280_pressure;Samples;Min_cycle;Max_cycle;Signal;HPM_P1;HPM_P2
2023/03/02 00:02:22;;;;;;;2.50;1.30;;;23.10;99.90;;;;;;4990103;28;20237;-77
2023/03/02 00:04:55;;;;;;;4.80;1.27;;;23.20;99.90;;;;;;4995240;28;20271;-78
2023/03/02 00:07:31;;;;;;;3.50;1.40;;;23.10;99.90;;;;;;4994776;28;20218;-79
2023/03/02 00:10:04;;;;;;;2.55;1.20;;;23.10;99.90;;;;;;4992097;28;20220;-76
2023/03/02 00:12:36;;;;;;;2.92;1.20;;;23.10;99.90;;;;;;4991883;28;20699;-77
2023/03/02 00:15:08;;;;;;;2.25;0.90;;;23.20;99.90;;;;;;4989205;28;20198;-79
2023/03/02 00:17:39;;;;;;;2.33;1.20;;;23.20;99.90;;;;;;4989755;28;20661;-78
2023/03/02 00:20:11;;;;;;;3.13;1.10;;;23.20;99.90;;;;;;4989636;28;20202;-77
2023/03/02 00:22:43;;;;;;;2.08;1.10;;;23.20;99.90;;;;;;4989493;28;20326;-78
2023/03/02 00:25:17;;;;;;;5.57;1.27;;;23.20;99.90;;;;;;4989276;28;20681;-79
2023/03/02 00:27:48;;;;;;;4.28;1.50;;;23.10;99.90;;;;;;4993704;28;20198;-77
2023/03/02 00:30:19;;;;;;;5.85;1.73;;;23.10;99.90;;;;;;4988750;28;20526;-77
2023/03/02 00:32:50;;;;;;;4.20;1.33;;;23.10;99.90;;;;;;5005291;28;20763;-78
2023/03/02 00:35:21;;;;;;;3.60;1.50;;;23.10;99.90;;;;;;4993146;28;21810;-78
2023/03/02 00:37:52;;;;;;;5.18;1.50;;;23.30;99.90;;;;;;4989717;28;20202;-79
2023/03/02 00:40:26;;;;;;;4.80;1.50;;;23.40;99.90;;;;;;4989062;28;20198;-78
2023/03/02 00:42:57;;;;;;;3.42;1.20;;;23.50;99.90;;;;;;4989548;28;20268;-78
2023/03/02 00:45:28;;;;;;;4.53;1.42;;;23.60;99.90;;;;;;4998567;28;20213;-78
2023/03/02 00:47:59;;;;;;;3.17;1.70;;;23.60;99.90;;;;;;5009622;28;20191;-78
2023/03/02 00:50:31;;;;;;;4.15;1.52;;;23.80;99.90;;;;;;5023585;28;20202;-79
2023/03/02 00:53:02;;;;;;;4.65;1.40;;;23.70;99.90;;;;;;5019831;28;20198;-78
2023/03/02 00:55:35;;;;;;;4.38;1.40;;;23.80;99.90;;;;;;5019952;28;20202;-78
2023/03/02 00:58:06;;;;;;;2.88;1.42;;;23.80;99.90;;;;;;5002650;28;20195;-78
2023/03/02 01:00:38;;;;;;;4.57;1.50;;;23.80;99.90;;;;;;5013713;28;20209;-78
2023/03/02 01:03:09;;;;;;;6.43;1.65;;;23.90;99.90;;;;;;5013614;28;20218;-77
2023/03/02 01:05:41;;;;;;;2.63;1.25;;;24.00;99.90;;;;;;5011103;28;20210;-79
2023/03/02 01:08:12;;;;;;;4.22;1.50;;;24.10;99.90;;;;;;5014621;28;20198;-79
2023/03/02 01:10:45;;;;;;;4.60;1.40;;;24.10;99.90;;;;;;5011309;28;20198;-77
2023/03/02 01:13:16;;;;;;;3.60;1.40;;;24.20;99.90;;;;;;5014101;28;20665;-78
2023/03/02 01:15:47;;;;;;;4.00;1.25;;;24.20;99.90;;;;;;5014041;28;20202;-78
2023/03/02 01:18:18;;;;;;;2.97;1.00;;;24.10;99.90;;;;;;5012657;28;20205;-79
2023/03/02 01:20:49;;;;;;;2.15;1.05;;;24.20;99.90;;;;;;4995566;28;20205;-78
2023/03/02 01:23:21;;;;;;;2.58;1.13;;;24.30;99.90;;;;;;4999372;28;20731;-80
2023/03/02 01:25:54;;;;;;;2.70;1.08;;;24.50;99.90;;;;;;5015120;28;20285;-77
2023/03/02 01:28:27;;;;;;;3.15;1.20;;;24.60;99.90;;;;;;4999748;28;20198;-78
2023/03/02 01:31:00;;;;;;;2.63;1.08;;;24.70;99.90;;;;;;5007642;28;20206;-79
2023/03/02 01:33:31;;;;;;;2.65;0.95;;;24.70;99.90;;;;;;5019233;28;20260;-76
2023/03/02 01:36:02;;;;;;;2.28;0.90;;;24.80;99.90;;;;;;5014110;28;20194;-78
2023/03/02 01:38:33;;;;;;;1.63;0.98;;;24.80;99.90;;;;;;5011550;28;20206;-77
2023/03/02 01:41:07;;;;;;;2.28;0.85;;;25.00;99.90;;;;;;5011280;28;20190;-78
2023/03/02 01:43:40;;;;;;;2.55;0.90;;;25.20;99.90;;;;;;5005046;28;20221;-78
2023/03/02 01:46:18;;;;;;;3.28;1.10;;;25.30;99.90;;;;;;5010578;28;20206;-77
2023/03/02 01:48:53;;;;;;;6.15;1.13;;;25.40;99.90;;;;;;5008429;28;20604;-77
2023/03/02 01:51:26;;;;;;;2.50;0.80;;;25.60;99.90;;;;;;5011804;28;20260;-78
2023/03/02 01:54:02;;;;;;;2.17;0.82;;;25.80;99.90;;;;;;5012718;28;20673;-79
2023/03/02 01:56:37;;;;;;;2.50;0.88;;;25.90;99.90;;;;;;4996734;28;20285;-79
2023/03/02 01:59:11;;;;;;;3.45;0.95;;;25.90;99.90;;;;;;5007121;28;20198;-77
2023/03/02 02:01:45;;;;;;;1.65;1.00;;;25.90;99.90;;;;;;5012922;28;20662;-79
2023/03/02 02:04:16;;;;;;;3.13;0.85;;;25.90;99.90;;;;;;5018166;28;20991;-79
2023/03/02 02:06:49;;;;;;;1.83;0.90;;;26.00;99.90;;;;;;5032337;28;20213;-79
2023/03/02 02:09:25;;;;;;;2.25;0.90;;;26.00;99.90;;;;;;5009074;28;20218;-79
2023/03/02 02:11:58;;;;;;;1.58;0.70;;;26.10;99.90;;;;;;5014124;28;20193;-79
2023/03/02 02:14:29;;;;;;;2.92;0.90;;;26.10;99.90;;;;;;5005230;28;20193;-78
2023/03/02 02:17:00;;;;;;;2.33;0.80;;;26.10;99.90;;;;;;5014351;28;20214;-80
2023/03/02 02:19:46;;;;;;;2.95;1.00;;;26.20;99.90;;;;;;5010003;28;20248;-79
2023/03/02 02:22:22;;;;;;;2.63;0.82;;;26.20;99.90;;;;;;5007683;28;20275;-79
2023/03/02 02:24:58;;;;;;;3.30;0.90;;;26.30;99.90;;;;;;5012754;28;20283;-79
2023/03/02 02:27:32;;;;;;;2.15;0.80;;;26.20;99.90;;;;;;5012426;28;20244;-78
2023/03/02 02:30:06;;;;;;;2.28;0.88;;;26.20;99.90;;;;;;5012116;28;20264;-78
2023/03/02 02:32:39;;;;;;;2.00;0.85;;;26.10;99.90;;;;;;5012560;28;20272;-78
2023/03/02 02:35:18;;;;;;;2.20;0.70;;;26.30;99.90;;;;;;5023758;28;20206;-78
2023/03/02 02:37:52;;;;;;;1.52;0.75;;;26.40;99.90;;;;;;5015671;28;20288;-79
2023/03/02 02:40:39;;;;;;;1.58;0.60;;;26.40;99.90;;;;;;5035909;28;20535;-78
2023/03/02 02:43:14;;;;;;;2.13;0.52;;;26.40;99.90;;;;;;5031683;28;20237;-78
2023/03/02 02:45:45;;;;;;;1.85;0.80;;;26.40;99.90;;;;;;5032614;28;20200;-78
2023/03/02 02:48:19;;;;;;;3.28;0.80;;;26.30;99.90;;;;;;5019241;28;20575;-79
2023/03/02 02:50:52;;;;;;;1.45;0.75;;;26.40;99.90;;;;;;5012777;28;20197;-78
2023/03/02 02:53:29;;;;;;;2.10;0.70;;;26.40;99.90;;;;;;5014573;28;20196;-78
2023/03/02 02:56:01;;;;;;;0.90;0.50;;;26.50;99.90;;;;;;5013206;28;20205;-78
2023/03/02 02:58:39;;;;;;;1.20;0.60;;;26.40;99.90;;;;;;5012877;28;20669;-79
2023/03/02 03:01:10;;;;;;;3.05;0.77;;;26.30;99.90;;;;;;5012460;28;20198;-78
2023/03/02 03:03:44;;;;;;;3.22;0.60;;;26.30;99.90;;;;;;5011886;28;20221;-77
2023/03/02 03:06:22;;;;;;;3.92;0.80;;;26.30;99.90;;;;;;5013725;28;20209;-79
2023/03/02 03:09:03;;;;;;;1.73;0.70;;;26.30;99.90;;;;;;5012743;28;20202;-77
2023/03/02 03:11:35;;;;;;;2.33;0.70;;;26.20;99.90;;;;;;5012069;28;20206;-78
2023/03/02 03:14:14;;;;;;;3.90;0.70;;;26.20;99.90;;;;;;5011447;28;20209;-79
2023/03/02 03:16:47;;;;;;;3.78;0.75;;;26.10;99.90;;;;;;5011538;28;20277;-78
2023/03/02 03:19:23;;;;;;;2.45;0.70;;;26.20;99.90;;;;;;5011232;28;20209;-78
2023/03/02 03:21:56;;;;;;;1.95;0.73;;;26.20;99.90;;;;;;4991996;28;20206;-79
2023/03/02 03:24:28;;;;;;;2.17;0.57;;;26.20;99.90;;;;;;4993273;28;20210;-78
2023/03/02 03:27:00;;;;;;;1.98;0.70;;;26.10;99.90;;;;;;4993484;28;20690;-79
2023/03/02 03:29:34;;;;;;;1.75;0.60;;;26.20;99.90;;;;;;5002052;28;20252;-79
2023/03/02 03:32:06;;;;;;;2.42;0.70;;;26.40;99.90;;;;;;5013868;28;20197;-79
2023/03/02 03:34:39;;;;;;;1.90;0.75;;;26.50;99.90;;;;;;5023349;28;20198;-79
2023/03/02 03:37:11;;;;;;;1.92;0.75;;;26.80;99.90;;;;;;5014085;28;20202;-77
2023/03/02 03:39:42;;;;;;;2.75;0.82;;;26.90;99.90;;;;;;5013507;28;20198;-77
2023/03/02 03:42:14;;;;;;;1.65;0.90;;;27.00;99.90;;;;;;5011959;28;20229;-77
2023/03/02 03:44:47;;;;;;;4.20;1.00;;;27.00;99.90;;;;;;5012319;28;20230;-77
2023/03/02 03:47:21;;;;;;;2.05;0.73;;;27.10;99.90;;;;;;5012184;28;20197;-79
2023/03/02 03:49:52;;;;;;;2.67;0.95;;;27.20;99.90;;;;;;5012355;28;20194;-78
2023/03/02 03:52:29;;;;;;;2.28;0.70;;;27.30;99.90;;;;;;5011659;28;20213;-79
2023/03/02 03:55:03;;;;;;;1.90;0.60;;;27.20;99.90;;;;;;5011818;28;20202;-77
2023/03/02 03:57:34;;;;;;;0.95;0.60;;;27.10;99.90;;;;;;5020391;28;20212;-77
2023/03/02 04:00:09;;;;;;;2.17;0.60;;;27.10;99.90;;;;;;5019445;28;20225;-78
2023/03/02 04:02:40;;;;;;;3.10;0.85;;;27.00;99.90;;;;;;5022902;28;20202;-79
2023/03/02 04:05:12;;;;;;;2.88;0.80;;;26.90;99.90;;;;;;5038852;28;20774;-77
2023/03/02 04:07:43;;;;;;;2.88;0.90;;;26.80;99.90;;;;;;5033151;28;20198;-77
2023/03/02 04:10:16;;;;;;;2.55;0.82;;;26.70;99.90;;;;;;5019973;28;20265;-79
2023/03/02 04:12:47;;;;;;;1.85;0.60;;;26.70;99.90;;;;;;5019071;28;20645;-78
2023/03/02 04:15:20;;;;;;;3.67;1.00;;;26.80;99.90;;;;;;5019102;28;20193;-78
2023/03/02 04:17:52;;;;;;;4.80;1.00;;;26.70;99.90;;;;;;5013515;28;20198;-77
2023/03/02 04:20:24;;;;;;;4.47;0.80;;;26.60;99.90;;;;;;5018595;28;20216;-78
2023/03/02 04:22:56;;;;;;;2.05;0.70;;;26.60;99.90;;;;;;5032214;28;20197;-79
2023/03/02 04:25:30;;;;;;;1.75;0.60;;;26.50;99.90;;;;;;5020099;28;20593;-77
2023/03/02 04:28:01;;;;;;;1.65;0.60;;;26.60;99.90;;;;;;5012840;28;20588;-78
2023/03/02 04:30:36;;;;;;;1.52;0.65;;;26.60;99.90;;;;;;5012979;28;20198;-77
2023/03/02 04:33:07;;;;;;;1.95;0.85;;;26.70;99.90;;;;;;5012429;28;20190;-77
2023/03/02 04:35:38;;;;;;;2.50;0.90;;;26.70;99.90;;;;;;5017499;28;20194;-75
2023/03/02 04:38:09;;;;;;;0.73;0.60;;;26.80;99.90;;;;;;5009893;28;20217;-78
2023/03/02 04:40:40;;;;;;;6.15;0.90;;;26.90;99.90;;;;;;5010941;28;20213;-77
2023/03/02 04:43:11;;;;;;;2.20;0.80;;;27.00;99.90;;;;;;5011705;28;20234;-77
2023/03/02 04:45:44;;;;;;;2.25;0.70;;;27.00;99.90;;;;;;5014978;28;20226;-77
2023/03/02 04:48:16;;;;;;;1.40;0.55;;;26.90;99.90;;;;;;5014489;28;20569;-76
2023/03/02 04:50:47;;;;;;;1.65;0.60;;;27.00;99.90;;;;;;5004258;28;20477;-77
2023/03/02 04:53:19;;;;;;;2.50;0.80;;;26.90;99.90;;;;;;5016588;28;20256;-77
2023/03/02 04:55:50;;;;;;;1.83;0.82;;;26.90;99.90;;;;;;5025950;28;20208;-77
2023/03/02 04:58:21;;;;;;;2.03;0.65;;;26.90;99.90;;;;;;5035132;28;20213;-76
2023/03/02 05:01:00;;;;;;;2.17;0.60;;;26.80;99.90;;;;;;5022056;28;20190;-76
2023/03/02 05:03:32;;;;;;;2.67;0.73;;;26.80;99.90;;;;;;5015564;28;20201;-77
2023/03/02 05:06:04;;;;;;;2.83;1.02;;;26.80;99.90;;;;;;5023417;28;20233;-77
2023/03/02 05:08:36;;;;;;;2.45;0.80;;;26.90;99.90;;;;;;5035320;28;20197;-77
2023/03/02 05:11:08;;;;;;;3.30;0.73;;;26.90;99.90;;;;;;5027795;28;20201;-76
2023/03/02 05:13:39;;;;;;;4.13;0.95;;;26.90;99.90;;;;;;5011440;28;20194;-77
2023/03/02 05:16:12;;;;;;;2.42;0.70;;;26.90;99.90;;;;;;5015019;28;20700;-77
2023/03/02 05:18:43;;;;;;;2.30;0.80;;;27.00;99.90;;;;;;5015314;28;20213;-78
2023/03/02 05:21:15;;;;;;;3.60;0.80;;;27.00;99.90;;;;;;5015421;28;20194;-77
2023/03/02 05:23:47;;;;;;;2.55;0.68;;;27.00;99.90;;;;;;5015487;28;20213;-77
2023/03/02 05:26:18;;;;;;;2.92;0.70;;;27.00;99.90;;;;;;5013039;28;20222;-77
2023/03/02 05:28:50;;;;;;;2.00;0.90;;;27.00;99.90;;;;;;5017928;28;20194;-77
2023/03/02 05:31:26;;;;;;;2.55;0.60;;;27.10;99.90;;;;;;5018295;28;20199;-78
2023/03/02 05:33:57;;;;;;;2.15;0.70;;;27.20;99.90;;;;;;5011607;28;20201;-73
2023/03/02 05:36:28;;;;;;;2.22;0.80;;;27.30;99.90;;;;;;5014305;28;20233;-77
2023/03/02 05:38:59;;;;;;;2.13;0.75;;;27.20;99.90;;;;;;5015392;28;20202;-77
2023/03/02 05:41:30;;;;;;;3.22;0.65;;;27.30;99.90;;;;;;5015109;28;20205;-77
2023/03/02 05:44:02;;;;;;;4.38;0.80;;;27.40;99.90;;;;;;5014537;28;20217;-78
2023/03/02 05:46:37;;;;;;;1.70;0.80;;;27.60;99.90;;;;;;5015020;28;20213;-78
2023/03/02 05:49:09;;;;;;;2.25;0.80;;;27.70;99.90;;;;;;5011764;28;20190;-78
2023/03/02 05:51:40;;;;;;;2.50;0.80;;;27.80;99.90;;;;;;4992956;28;20672;-77
2023/03/02 05:54:11;;;;;;;2.38;0.80;;;27.80;99.90;;;;;;4995559;28;20692;-78
2023/03/02 05:56:42;;;;;;;1.50;0.60;;;27.90;99.90;;;;;;4993406;28;20572;-77
2023/03/02 05:59:13;;;;;;;2.38;0.60;;;28.10;99.90;;;;;;4991335;28;20198;-77
2023/03/02 06:01:46;;;;;;;2.72;0.60;;;28.20;99.90;;;;;;4991687;28;20206;-77
2023/03/02 06:04:18;;;;;;;1.95;0.63;;;28.30;99.90;;;;;;4992847;28;20280;-77
2023/03/02 06:06:50;;;;;;;2.10;0.60;;;28.40;99.90;;;;;;4997711;28;20198;-77
2023/03/02 06:09:21;;;;;;;1.40;0.70;;;28.40;99.90;;;;;;4990848;28;20209;-78
2023/03/02 06:11:53;;;;;;;2.58;0.88;;;28.30;99.90;;;;;;4991197;28;20209;-77
2023/03/02 06:14:24;;;;;;;1.75;0.70;;;28.40;99.90;;;;;;4991379;28;20198;-75
2023/03/02 06:16:57;;;;;;;1.80;0.70;;;28.40;99.90;;;;;;4993994;28;20299;-76
2023/03/02 06:19:31;;;;;;;1.45;0.77;;;28.60;99.90;;;;;;5015105;28;20208;-80
2023/03/02 06:22:06;;;;;;;3.78;0.80;;;28.60;99.90;;;;;;5010275;28;20190;-76
2023/03/02 06:24:38;;;;;;;2.30;0.85;;;28.70;99.90;;;;;;4995954;28;20225;-76
2023/03/02 06:27:09;;;;;;;3.60;0.90;;;28.90;99.90;;;;;;4993489;28;20217;-77
2023/03/02 06:29:40;;;;;;;2.38;0.90;;;29.00;99.90;;;;;;4990055;28;20201;-77
2023/03/02 06:32:15;;;;;;;2.67;0.85;;;29.00;99.90;;;;;;4992084;28;20213;-76
2023/03/02 06:34:47;;;;;;;2.13;0.90;;;29.30;99.90;;;;;;5001243;28;20212;-77
2023/03/02 06:37:18;;;;;;;2.72;0.88;;;29.40;99.90;;;;;;4995573;28;20552;-77
2023/03/02 06:39:49;;;;;;;3.45;0.95;;;29.50;99.90;;;;;;4994775;28;20599;-77
2023/03/02 06:42:20;;;;;;;3.92;1.00;;;29.60;99.90;;;;;;4991401;28;20839;-77
2023/03/02 06:44:53;;;;;;;4.32;1.08;;;29.70;99.90;;;;;;4992342;28;20230;-78
2023/03/02 06:47:26;;;;;;;3.10;1.00;;;29.70;99.90;;;;;;4991534;28;20665;-76
2023/03/02 06:49:57;;;;;;;3.70;1.20;;;29.70;99.90;;;;;;4992450;28;20202;-77
2023/03/02 06:52:29;;;;;;;4.60;1.13;;;29.90;99.90;;;;;;4991237;28;20666;-76
2023/03/02 06:55:00;;;;;;;5.18;1.27;;;30.00;99.90;;;;;;4991922;28;20207;-77
2023/03/02 06:57:32;;;;;;;3.95;1.10;;;30.00;99.90;;;;;;4989774;28;20286;-78
2023/03/02 07:00:08;;;;;;;3.97;1.10;;;30.10;99.90;;;;;;4992161;28;20209;-78
2023/03/02 07:02:41;;;;;;;3.03;0.98;;;30.10;99.90;;;;;;4990462;28;20661;-78
2023/03/02 07:05:12;;;;;;;3.28;0.80;;;30.00;99.90;;;;;;4990988;28;20232;-78
2023/03/02 07:07:43;;;;;;;3.00;0.95;;;30.20;99.90;;;;;;4989678;28;20202;-78
2023/03/02 07:10:15;;;;;;;3.78;0.93;;;30.40;99.90;;;;;;4991113;28;20197;-77
2023/03/02 07:12:46;;;;;;;4.10;1.38;;;30.50;99.90;;;;;;4992688;28;20204;-78
2023/03/02 07:15:17;;;;;;;6.00;1.52;;;30.80;99.90;;;;;;4989038;28;20216;-78
2023/03/02 07:17:50;;;;;;;2.33;1.00;;;31.00;99.90;;;;;;4991086;28;20209;-78
2023/03/02 07:20:23;;;;;;;3.63;0.90;;;31.10;99.90;;;;;;4989819;28;20198;-77
2023/03/02 07:22:54;;;;;;;3.00;0.85;;;31.20;99.90;;;;;;4989369;28;20200;-76
2023/03/02 07:25:25;;;;;;;1.75;0.90;;;31.20;99.90;;;;;;4989690;28;20229;-77
2023/03/02 07:27:56;;;;;;;2.72;0.85;;;31.30;99.90;;;;;;4990455;28;20724;-77
2023/03/02 07:30:27;;;;;;;3.17;1.00;;;31.50;99.90;;;;;;4991796;28;20205;-77
2023/03/02 07:33:00;;;;;;;3.92;1.00;;;31.50;99.90;;;;;;4992328;28;20872;-77
2023/03/02 07:35:31;;;;;;;3.78;1.10;;;31.50;99.90;;;;;;4990011;28;20202;-77
2023/03/02 07:38:02;;;;;;;2.15;0.82;;;31.50;99.90;;;;;;5001085;28;20198;-76
2023/03/02 07:40:34;;;;;;;3.55;1.00;;;31.30;99.90;;;;;;4992402;28;20213;-78
2023/03/02 07:43:05;;;;;;;1.92;0.70;;;31.20;99.90;;;;;;4990389;28;20934;-77
2023/03/02 07:45:36;;;;;;;2.95;0.90;;;30.90;99.90;;;;;;4990189;28;20229;-76
2023/03/02 07:48:10;;;;;;;3.00;0.88;;;30.50;99.90;;;;;;4990040;28;20205;-77
2023/03/02 07:50:41;;;;;;;2.53;0.90;;;30.00;99.90;;;;;;4993084;28;20206;-77
2023/03/02 07:53:12;;;;;;;2.67;0.70;;;29.60;99.90;;;;;;4990525;28;20700;-77
2023/03/02 07:55:44;;;;;;;2.17;0.98;;;29.10;99.90;;;;;;4990838;28;20684;-77
2023/03/02 07:58:15;;;;;;;1.70;0.80;;;28.60;99.90;;;;;;4989105;28;20211;-77
2023/03/02 08:00:46;;;;;;;1.67;0.80;;;28.30;99.90;;;;;;4989743;28;20688;-77
2023/03/02 08:03:19;;;;;;;5.00;1.00;;;28.00;99.90;;;;;;4990316;28;21033;-77
2023/03/02 08:05:50;;;;;;;2.58;0.80;;;27.60;99.90;;;;;;4993424;28;22128;-77
2023/03/02 08:08:21;;;;;;;3.28;1.10;;;27.40;99.90;;;;;;4990287;28;20209;-76
2023/03/02 08:10:52;;;;;;;3.63;1.20;;;27.20;99.90;;;;;;4989557;28;20430;-77
2023/03/02 08:13:23;;;;;;;5.00;1.10;;;27.00;99.90;;;;;;4988768;28;20217;-76
2023/03/02 08:16:02;;;;;;;3.40;1.10;;;26.80;99.90;;;;;;4989406;28;20202;-77
2023/03/02 08:18:36;;;;;;;1.73;0.80;;;26.60;99.90;;;;;;4989695;28;20198;-76
2023/03/02 08:21:12;;;;;;;4.15;1.10;;;26.60;99.90;;;;;;4993444;28;20321;-77
2023/03/02 08:23:43;;;;;;;3.25;0.95;;;26.40;99.90;;;;;;4996939;28;20197;-76
2023/03/02 08:26:15;;;;;;;1.80;1.00;;;26.20;99.90;;;;;;4993803;28;20244;-77
2023/03/02 08:28:46;;;;;;;2.70;1.10;;;26.10;99.90;;;;;;4993375;28;20206;-78
2023/03/02 08:31:17;;;;;;;2.67;1.05;;;26.10;99.90;;;;;;4992281;28;20202;-77
2023/03/02 08:33:50;;;;;;;3.85;1.30;;;26.00;99.90;;;;;;4993917;28;21539;-77
2023/03/02 08:36:22;;;;;;;2.63;1.33;;;25.90;99.90;;;;;;4993670;28;20687;-77
2023/03/02 08:38:54;;;;;;;3.67;1.20;;;25.90;99.90;;;;;;5000922;28;20189;-76
2023/03/02 08:41:26;;;;;;;3.97;1.17;;;25.80;99.90;;;;;;4996991;28;20205;-77
2023/03/02 08:43:57;;;;;;;3.50;1.10;;;25.80;99.90;;;;;;4992596;28;20220;-78
2023/03/02 08:46:29;;;;;;;2.53;0.98;;;25.70;99.90;;;;;;4994959;28;20225;-78
2023/03/02 08:49:02;;;;;;;2.35;0.80;;;25.70;99.90;;;;;;4993076;28;20202;-77
2023/03/02 08:51:34;;;;;;;4.40;1.30;;;25.70;99.90;;;;;;4991936;28;20198;-77
2023/03/02 08:54:05;;;;;;;3.95;1.10;;;25.60;99.90;;;;;;4993579;28;20205;-78
2023/03/02 08:56:37;;;;;;;2.67;1.00;;;25.60;99.90;;;;;;4996731;28;20666;-77
2023/03/02 08:59:09;;;;;;;3.80;1.25;;;25.60;99.90;;;;;;4994829;28;20576;-77
2023/03/02 09:01:41;;;;;;;4.15;1.02;;;25.50;99.90;;;;;;4994011;28;20225;-78
2023/03/02 09:04:14;;;;;;;1.30;0.70;;;25.50;99.90;;;;;;4993119;28;20213;-78
2023/03/02 09:06:46;;;;;;;4.75;1.17;;;25.40;99.90;;;;;;4992666;28;20232;-78
2023/03/02 09:09:18;;;;;;;3.08;1.15;;;25.30;99.90;;;;;;4993349;28;20206;-79
2023/03/02 09:11:49;;;;;;;4.07;1.30;;;25.30;99.90;;;;;;4992016;28;20209;-77
2023/03/02 09:14:21;;;;;;;1.85;0.70;;;25.30;99.90;;;;;;4995201;28;20693;-78
2023/03/02 09:16:52;;;;;;;3.33;1.00;;;25.30;99.90;;;;;;4994543;28;20201;-78
2023/03/02 09:19:25;;;;;;;3.75;1.30;;;25.30;99.90;;;;;;4994089;28;20279;-77
2023/03/02 09:21:56;;;;;;;3.35;1.10;;;25.20;99.90;;;;;;4993775;28;20661;-78
2023/03/02 09:24:28;;;;;;;3.80;1.10;;;25.20;99.90;;;;;;4992445;28;20206;-77
2023/03/02 09:26:59;;;;;;;2.22;0.95;;;25.20;99.90;;;;;;4992712;28;20245;-77
2023/03/02 09:29:30;;;;;;;3.05;0.95;;;25.20;99.90;;;;;;4993060;28;20305;-77
2023/03/02 09:32:01;;;;;;;3.25;1.00;;;25.20;99.90;;;;;;4993537;28;20197;-77
2023/03/02 09:34:34;;;;;;;3.63;1.10;;;25.20;99.90;;;;;;4992782;28;20198;-76
2023/03/02 09:37:05;;;;;;;4.57;1.10;;;25.10;99.90;;;;;;4991733;28;20206;-76
2023/03/02 09:39:36;;;;;;;3.10;1.10;;;25.10;99.90;;;;;;4998931;28;20566;-76
2023/03/02 09:42:29;;;;;;;1.55;1.08;;;25.10;99.90;;;;;;5000925;28;20225;-77
2023/03/02 09:45:16;;;;;;;4.93;1.40;;;25.10;99.90;;;;;;4992782;28;20225;-76
2023/03/02 09:47:55;;;;;;;3.33;1.20;;;25.10;99.90;;;;;;4994387;28;20210;-77
2023/03/02 09:50:35;;;;;;;3.10;1.10;;;25.00;99.90;;;;;;4992360;28;20202;-78
2023/03/02 09:53:24;;;;;;;3.85;1.20;;;25.00;99.90;;;;;;4994272;28;20206;-77
2023/03/02 09:55:59;;;;;;;2.50;0.98;;;25.00;99.90;;;;;;4991151;28;20217;-76
2023/03/02 09:58:36;;;;;;;3.58;1.10;;;24.90;99.90;;;;;;4992569;28;20202;-78
2023/03/02 10:01:12;;;;;;;4.18;1.10;;;24.90;99.90;;;;;;4993116;28;20284;-77
2023/03/02 10:03:52;;;;;;;6.43;1.13;;;24.90;99.90;;;;;;4993357;28;20194;-79
2023/03/02 10:06:25;;;;;;;3.40;1.25;;;24.80;99.90;;;;;;4991254;28;20237;-76
2023/03/02 10:08:57;;;;;;;3.08;1.15;;;24.90;99.90;;;;;;4991376;28;20205;-78
2023/03/02 10:11:38;;;;;;;2.80;0.90;;;24.90;99.90;;;;;;4990193;28;20230;-76
2023/03/02 10:14:17;;;;;;;2.58;0.93;;;24.90;99.90;;;;;;4991881;28;20212;-77
2023/03/02 10:16:54;;;;;;;4.50;1.30;;;24.90;99.90;;;;;;4991353;28;20208;-78
2023/03/02 10:19:31;;;;;;;2.88;1.02;;;24.90;99.90;;;;;;4992988;28;20574;-80
2023/03/02 10:22:13;;;;;;;1.55;0.75;;;24.90;99.90;;;;;;4994514;28;21662;-78
2023/03/02 10:24:52;;;;;;;4.45;1.40;;;24.70;99.90;;;;;;4991148;28;20202;-78
2023/03/02 10:27:31;;;;;;;4.78;1.10;;;24.70;99.90;;;;;;4990035;28;20240;-78
2023/03/02 10:30:06;;;;;;;4.63;1.00;;;24.70;99.90;;;;;;4991823;28;20471;-78
2023/03/02 10:32:43;;;;;;;4.35;0.93;;;24.70;99.90;;;;;;4990802;28;20201;-80
2023/03/02 10:35:19;;;;;;;3.25;1.10;;;24.70;99.90;;;;;;4991972;28;20198;-78
2023/03/02 10:37:58;;;;;;;2.83;1.20;;;24.80;99.90;;;;;;4996863;28;20240;-77
2023/03/02 10:40:41;;;;;;;4.15;1.20;;;24.70;99.90;;;;;;5001522;28;20256;-78
2023/03/02 10:43:20;;;;;;;4.03;1.10;;;24.70;99.90;;;;;;4990146;28;20242;-78
2023/03/02 10:46:02;;;;;;;2.15;1.10;;;24.70;99.90;;;;;;4990600;28;20204;-77
2023/03/02 10:48:37;;;;;;;2.83;1.25;;;24.70;99.90;;;;;;4990869;28;20210;-79
2023/03/02 10:51:08;;;;;;;3.00;1.27;;;24.70;99.90;;;;;;4990599;28;20701;-78
2023/03/02 10:53:42;;;;;;;5.22;1.30;;;24.70;99.90;;;;;;4992838;28;20202;-79
2023/03/02 10:56:22;;;;;;;2.60;0.98;;;24.70;99.90;;;;;;4990696;28;20681;-79
2023/03/02 10:58:53;;;;;;;6.85;1.00;;;24.70;99.90;;;;;;4989679;28;20206;-79
2023/03/02 11:01:24;;;;;;;2.78;1.10;;;24.70;99.90;;;;;;4990623;28;20205;-78
2023/03/02 11:04:00;;;;;;;5.57;0.90;;;24.70;99.90;;;;;;4992151;28;21802;-79
2023/03/02 11:06:32;;;;;;;2.65;1.00;;;24.70;99.90;;;;;;4991259;28;20249;-79
2023/03/02 11:09:07;;;;;;;5.07;1.48;;;24.70;99.90;;;;;;4992313;28;20554;-79
2023/03/02 11:11:39;;;;;;;4.20;1.27;;;24.60;99.90;;;;;;4992446;28;20194;-79
2023/03/02 11:14:18;;;;;;;2.00;0.90;;;24.60;99.90;;;;;;4990582;28;20791;-79
2023/03/02 11:16:49;;;;;;;3.78;1.10;;;24.60;99.90;;;;;;4990159;28;20600;-80
2023/03/02 11:19:26;;;;;;;4.20;1.10;;;24.60;99.90;;;;;;4989716;28;20256;-80
2023/03/02 11:22:02;;;;;;;2.55;1.00;;;24.50;99.90;;;;;;4989833;28;20576;-79
2023/03/02 11:24:38;;;;;;;4.00;1.10;;;24.60;99.90;;;;;;4989764;28;21852;-81
2023/03/02 11:27:15;;;;;;;4.43;1.00;;;24.60;99.90;;;;;;4992287;28;20436;-79
2023/03/02 11:29:51;;;;;;;3.67;1.08;;;24.50;99.90;;;;;;4989379;28;20202;-78
2023/03/02 11:32:30;;;;;;;2.95;0.85;;;24.50;99.90;;;;;;4989725;28;20202;-79
2023/03/02 11:35:03;;;;;;;3.42;1.10;;;24.50;99.90;;;;;;5005008;28;20198;-79
2023/03/02 11:37:41;;;;;;;2.50;0.90;;;24.50;99.90;;;;;;5008999;28;20194;-78
2023/03/02 11:40:28;;;;;;;2.78;1.10;;;24.50;99.90;;;;;;5025648;28;20197;-77
2023/03/02 11:43:03;;;;;;;3.08;0.93;;;24.50;99.90;;;;;;5012407;28;20316;-78
2023/03/02 11:45:38;;;;;;;3.83;0.98;;;24.50;99.90;;;;;;5011380;28;20573;-78
2023/03/02 11:48:14;;;;;;;3.33;0.90;;;24.50;99.90;;;;;;5011148;28;20657;-79
2023/03/02 11:50:56;;;;;;;3.83;1.00;;;24.50;99.90;;;;;;5011155;28;20198;-77
2023/03/02 11:53:31;;;;;;;4.35;1.02;;;24.50;99.90;;;;;;5005886;28;20206;-77
2023/03/02 11:56:05;;;;;;;6.47;0.90;;;24.40;99.90;;;;;;4993769;28;20197;-78
2023/03/02 11:58:36;;;;;;;2.95;1.10;;;24.40;99.90;;;;;;4996962;28;20190;-79
2023/03/02 12:01:12;;;;;;;3.63;1.00;;;24.40;99.90;;;;;;5011054;28;20209;-77
2023/03/02 12:03:44;;;;;;;3.53;0.90;;;24.40;99.90;;;;;;5011167;28;20197;-78
2023/03/02 12:06:36;;;;;;;2.75;0.93;;;24.40;99.90;;;;;;5010887;28;20209;-79
2023/03/02 12:09:30;;;;;;;2.97;0.90;;;24.40;99.90;;;;;;5010969;28;20643;-80
2023/03/02 12:12:18;;;;;;;2.28;0.90;;;24.40;99.90;;;;;;5011280;28;20225;-81
2023/03/02 12:14:51;;;;;;;4.07;0.95;;;24.40;99.90;;;;;;5010409;28;20661;-79
2023/03/02 12:17:31;;;;;;;3.75;1.08;;;24.30;99.90;;;;;;5011090;28;20283;-79
2023/03/02 12:20:27;;;;;;;2.17;0.90;;;24.30;99.90;;;;;;4998993;28;20252;-80
2023/03/02 12:23:10;;;;;;;3.72;1.17;;;24.30;99.90;;;;;;5010859;28;20213;-79
2023/03/02 12:25:50;;;;;;;3.70;0.88;;;24.30;99.90;;;;;;5009786;28;20198;-79
2023/03/02 12:28:37;;;;;;;2.10;0.90;;;24.30;99.90;;;;;;5006932;28;20317;-78
2023/03/02 12:31:11;;;;;;;2.65;0.80;;;24.30;99.90;;;;;;4991199;28;20599;-77
2023/03/02 12:33:47;;;;;;;3.05;1.10;;;24.30;99.90;;;;;;4999571;28;20202;-78
2023/03/02 12:36:24;;;;;;;3.70;1.10;;;24.30;99.90;;;;;;5009746;28;20201;-78
2023/03/02 12:39:11;;;;;;;5.53;1.50;;;24.30;99.90;;;;;;5009577;28;20206;-78
2023/03/02 12:42:00;;;;;;;3.92;1.13;;;24.30;99.90;;;;;;5019625;28;20226;-78
2023/03/02 12:44:47;;;;;;;4.13;1.10;;;24.30;99.90;;;;;;4995809;28;20199;-78
2023/03/02 12:47:25;;;;;;;3.55;0.90;;;24.30;99.90;;;;;;4990871;28;20230;-78
2023/03/02 12:49:59;;;;;;;2.67;1.10;;;24.30;99.90;;;;;;4996077;28;20617;-77
2023/03/02 12:52:33;;;;;;;3.42;1.05;;;24.20;99.90;;;;;;5010872;28;20214;-77
2023/03/02 12:55:17;;;;;;;3.17;0.73;;;24.20;99.90;;;;;;5010190;28;20209;-77
2023/03/02 12:57:51;;;;;;;3.88;0.93;;;24.20;99.90;;;;;;5009386;28;20209;-77
2023/03/02 13:00:26;;;;;;;5.57;1.20;;;24.20;99.90;;;;;;5001640;28;20709;-78
2023/03/02 13:03:00;;;;;;;6.15;1.30;;;24.10;99.90;;;;;;4990892;28;20202;-77
2023/03/02 13:05:33;;;;;;;3.80;1.10;;;24.10;99.90;;;;;;5007201;28;20201;-78
2023/03/02 13:08:07;;;;;;;3.65;1.00;;;24.10;99.90;;;;;;5026154;28;20233;-79
2023/03/02 13:10:39;;;;;;;3.08;0.90;;;24.00;99.90;;;;;;5033789;28;20216;-79
2023/03/02 13:13:18;;;;;;;3.33;0.90;;;24.00;99.90;;;;;;5025128;28;20594;-78
2023/03/02 13:15:58;;;;;;;3.67;1.10;;;24.00;99.90;;;;;;5013376;28;20198;-77
2023/03/02 13:18:32;;;;;;;3.13;1.10;;;24.10;99.90;;;;;;5013914;28;20715;-78
2023/03/02 13:21:04;;;;;;;5.13;1.10;;;24.00;99.90;;;;;;5013360;28;20202;-77
2023/03/02 13:23:36;;;;;;;2.65;1.17;;;24.00;99.90;;;;;;5014947;28;20670;-77